sensor_id;sensor_type;location;lat;lon;timestamp;P1;durP1;ratioP1;P2;durP2;ratioP2
70477;SDS011;57956;53.362;-1.518;2024-01-30T01:53:26;17.30;;;5.37;;
70477;SDS011;57956;53.362;-1.518;2024-01-30T02:18:35;12.90;;;4.30;;
70477;SDS011;57956;53.362;-1.518;2024-01-30T02:21:19;11.07;;;2.30;;
70477;SDS011;57956;53.362;-1.518;2024-01-30T02:26:40;5.55;;;1.20;;
70477;SDS011;57956;53.362;-1.518;2024-01-30T02:29:17;4.32;;;1.45;;
70477;SDS011;57956;53.362;-1.518;2024-01-30T02:32:11;3.40;;;1.05;;
70477;SDS011;57956;53.362;-1.518;2024-01-30T02:34:47;2.15;;;0.40;;
70477;SDS011;57956;53.362;-1.518;2024-01-30T02:40:13;3.38;;;0.68;;
70477;SDS011;57956;53.362;-1.518;2024-01-30T02:45:29;2.45;;;0.40;;
70477;SDS011;57956;53.362;-1.518;2024-01-30T02:48:01;3.40;;;0.80;;
70477;SDS011;57956;53.362;-1.518;2024-01-30T02:50:56;4.13;;;0.82;;
70477;SDS011;57956;53.362;-1.518;2024-01-30T02:53:45;4.03;;;0.73;;
70477;SDS011;57956;53.362;-1.518;2024-01-30T02:59:25;4.27;;;1.13;;
70477;SDS011;57956;53.362;-1.518;2024-01-30T03:04:55;3.13;;;0.73;;
70477;SDS011;57956;53.362;-1.518;2024-01-30T03:07:23;3.53;;;1.05;;
70477;SDS011;57956;53.362;-1.518;2024-01-30T03:13:57;1.83;;;0.33;;
70477;SDS011;57956;53.362;-1.518;2024-01-30T03:26:25;2.17;;;0.40;;
70477;SDS011;57956;53.362;-1.518;2024-01-30T03:34:46;2.72;;;0.40;;
70477;SDS011;57956;53.362;-1.518;2024-01-30T04:05:00;1.17;;;0.10;;
70477;SDS011;57956;53.362;-1.518;2024-01-30T04:14:06;1.00;;;0.10;;
70477;SDS011;57956;53.362;-1.518;2024-01-30T04:20:02;1.10;;;0.20;;
70477;SDS011;57956;53.362;-1.518;2024-01-30T04:22:58;1.55;;;0.20;;
70477;SDS011;57956;53.362;-1.518;2024-01-30T04:31:22;1.65;;;0.20;;
70477;SDS011;57956;53.362;-1.518;2024-01-30T04:34:19;1.27;;;0.13;;
70477;SDS011;57956;53.362;-1.518;2024-01-30T04:40:22;1.85;;;0.30;;
70477;SDS011;57956;53.362;-1.518;2024-01-30T04:46:27;1.60;;;0.28;;
70477;SDS011;57956;53.362;-1.518;2024-01-30T05:15:30;1.85;;;0.22;;
70477;SDS011;57956;53.362;-1.518;2024-01-30T05:21:05;2.47;;;0.40;;
70477;SDS011;57956;53.362;-1.518;2024-01-30T05:44:40;1.10;;;0.10;;
70477;SDS011;57956;53.362;-1.518;2024-01-30T05:47:28;1.35;;;0.20;;
70477;SDS011;57956;53.362;-1.518;2024-01-30T05:53:16;1.38;;;0.20;;
70477;SDS011;57956;53.362;-1.518;2024-01-30T05:59:32;1.90;;;0.40;;
70477;SDS011;57956;53.362;-1.518;2024-01-30T06:02:18;1.97;;;0.50;;
70477;SDS011;57956;53.362;-1.518;2024-01-30T06:04:52;1.40;;;0.20;;
70477;SDS011;57956;53.362;-1.518;2024-01-30T06:07:25;1.23;;;0.20;;
70477;SDS011;57956;53.362;-1.518;2024-01-30T06:10:06;1.23;;;0.20;;
70477;SDS011;57956;53.362;-1.518;2024-01-30T06:12:34;1.20;;;0.20;;
70477;SDS011;57956;53.362;-1.518;2024-01-30T06:15:03;1.60;;;0.30;;
70477;SDS011;57956;53.362;-1.518;2024-01-30T06:17:28;1.50;;;0.10;;
70477;SDS011;57956;53.362;-1.518;2024-01-30T06:19:54;1.73;;;0.30;;
70477;SDS011;57956;53.362;-1.518;2024-01-30T06:22:19;1.03;;;0.10;;
70477;SDS011;57956;53.362;-1.518;2024-01-30T06:24:47;1.58;;;0.30;;
70477;SDS011;57956;53.362;-1.518;2024-01-30T06:27:15;1.23;;;0.17;;
70477;SDS011;57956;53.362;-1.518;2024-01-30T06:29:43;1.10;;;0.13;;
70477;SDS011;57956;53.362;-1.518;2024-01-30T06:32:09;1.10;;;0.10;;
70477;SDS011;57956;53.362;-1.518;2024-01-30T06:34:34;1.37;;;0.17;;
70477;SDS011;57956;53.362;-1.518;2024-01-30T06:37:11;1.58;;;0.30;;
70477;SDS011;57956;53.362;-1.518;2024-01-30T06:39:39;1.02;;;0.15;;
70477;SDS011;57956;53.362;-1.518;2024-01-30T06:42:06;1.00;;;0.10;;
70477;SDS011;57956;53.362;-1.518;2024-01-30T06:44:35;1.20;;;0.20;;
70477;SDS011;57956;53.362;-1.518;2024-01-30T06:47:03;1.00;;;0.10;;
70477;SDS011;57956;53.362;-1.518;2024-01-30T06:52:39;0.90;;;0.10;;
70477;SDS011;57956;53.362;-1.518;2024-01-30T06:55:08;0.88;;;0.10;;
70477;SDS011;57956;53.362;-1.518;2024-01-30T06:57:35;1.00;;;0.20;;
70477;SDS011;57956;53.362;-1.518;2024-01-30T07:00:04;1.23;;;0.10;;
70477;SDS011;57956;53.362;-1.518;2024-01-30T07:02:50;0.98;;;0.10;;
70477;SDS011;57956;53.362;-1.518;2024-01-30T07:05:15;0.93;;;0.10;;
70477;SDS011;57956;53.362;-1.518;2024-01-30T07:07:47;1.17;;;0.10;;
70477;SDS011;57956;53.362;-1.518;2024-01-30T07:10:16;1.10;;;0.20;;
70477;SDS011;57956;53.362;-1.518;2024-01-30T07:12:50;1.20;;;0.10;;
70477;SDS011;57956;53.362;-1.518;2024-01-30T07:15:36;1.10;;;0.17;;
70477;SDS011;57956;53.362;-1.518;2024-01-30T07:18:07;1.00;;;0.17;;
70477;SDS011;57956;53.362;-1.518;2024-01-30T07:20:37;1.20;;;0.10;;
70477;SDS011;57956;53.362;-1.518;2024-01-30T07:23:14;0.97;;;0.10;;
70477;SDS011;57956;53.362;-1.518;2024-01-30T07:25:44;1.10;;;0.15;;
70477;SDS011;57956;53.362;-1.518;2024-01-30T07:28:44;0.75;;;0.10;;
70477;SDS011;57956;53.362;-1.518;2024-01-30T07:31:06;1.00;;;0.10;;
70477;SDS011;57956;53.362;-1.518;2024-01-30T07:33:50;0.90;;;0.10;;
70477;SDS011;57956;53.362;-1.518;2024-01-30T07:37:05;1.07;;;0.20;;
70477;SDS011;57956;53.362;-1.518;2024-01-30T07:39:37;1.65;;;0.30;;
70477;SDS011;57956;53.362;-1.518;2024-01-30T07:51:36;1.00;;;0.10;;
70477;SDS011;57956;53.362;-1.518;2024-01-30T07:54:05;1.13;;;0.10;;
70477;SDS011;57956;53.362;-1.518;2024-01-30T07:56:46;1.40;;;0.20;;
70477;SDS011;57956;53.362;-1.518;2024-01-30T08:03:06;1.50;;;0.20;;
70477;SDS011;57956;53.362;-1.518;2024-01-30T08:08:41;1.23;;;0.10;;
70477;SDS011;57956;53.362;-1.518;2024-01-30T08:17:43;1.25;;;0.10;;
70477;SDS011;57956;53.362;-1.518;2024-01-30T08:23:26;1.38;;;0.20;;
70477;SDS011;57956;53.362;-1.518;2024-01-30T08:26:16;1.67;;;0.20;;
70477;SDS011;57956;53.362;-1.518;2024-01-30T08:28:41;1.30;;;0.20;;
70477;SDS011;57956;53.362;-1.518;2024-01-30T08:31:21;2.20;;;0.30;;
70477;SDS011;57956;53.362;-1.518;2024-01-30T08:34:48;1.10;;;0.10;;
70477;SDS011;57956;53.362;-1.518;2024-01-30T08:40:34;0.93;;;0.10;;
70477;SDS011;57956;53.362;-1.518;2024-01-30T08:43:21;1.13;;;0.10;;
70477;SDS011;57956;53.362;-1.518;2024-01-30T08:45:48;1.00;;;0.15;;
70477;SDS011;57956;53.362;-1.518;2024-01-30T08:48:14;1.10;;;0.10;;
70477;SDS011;57956;53.362;-1.518;2024-01-30T08:50:39;1.03;;;0.10;;
70477;SDS011;57956;53.362;-1.518;2024-01-30T08:53:04;1.07;;;0.10;;
70477;SDS011;57956;53.362;-1.518;2024-01-30T08:55:30;1.77;;;0.10;;
70477;SDS011;57956;53.362;-1.518;2024-01-30T08:57:55;1.73;;;0.10;;
70477;SDS011;57956;53.362;-1.518;2024-01-30T09:00:20;1.08;;;0.10;;
70477;SDS011;57956;53.362;-1.518;2024-01-30T09:02:46;0.63;;;0.10;;
70477;SDS011;57956;53.362;-1.518;2024-01-30T09:05:13;1.30;;;0.20;;
70477;SDS011;57956;53.362;-1.518;2024-01-30T09:07:38;1.45;;;0.10;;
70477;SDS011;57956;53.362;-1.518;2024-01-30T09:10:04;1.03;;;0.10;;
70477;SDS011;57956;53.362;-1.518;2024-01-30T09:12:29;1.67;;;0.20;;
70477;SDS011;57956;53.362;-1.518;2024-01-30T09:14:54;0.90;;;0.10;;
70477;SDS011;57956;53.362;-1.518;2024-01-30T09:17:20;1.20;;;0.17;;
70477;SDS011;57956;53.362;-1.518;2024-01-30T09:19:46;0.90;;;0.10;;
70477;SDS011;57956;53.362;-1.518;2024-01-30T09:22:11;1.10;;;0.10;;
70477;SDS011;57956;53.362;-1.518;2024-01-30T09:24:36;1.70;;;0.20;;
70477;SDS011;57956;53.362;-1.518;2024-01-30T09:27:02;1.83;;;0.40;;
70477;SDS011;57956;53.362;-1.518;2024-01-30T09:29:27;1.20;;;0.10;;
70477;SDS011;57956;53.362;-1.518;2024-01-30T09:31:52;1.50;;;0.20;;
70477;SDS011;57956;53.362;-1.518;2024-01-30T09:34:17;1.33;;;0.20;;
70477;SDS011;57956;53.362;-1.518;2024-01-30T09:36:46;1.93;;;0.20;;
70477;SDS011;57956;53.362;-1.518;2024-01-30T09:39:11;1.20;;;0.10;;
70477;SDS011;57956;53.362;-1.518;2024-01-30T09:41:42;1.27;;;0.10;;
70477;SDS011;57956;53.362;-1.518;2024-01-30T09:44:10;1.10;;;0.10;;
70477;SDS011;57956;53.362;-1.518;2024-01-30T09:46:36;1.63;;;0.20;;
70477;SDS011;57956;53.362;-1.518;2024-01-30T09:49:02;1.93;;;0.30;;
70477;SDS011;57956;53.362;-1.518;2024-01-30T09:51:28;1.48;;;0.13;;
70477;SDS011;57956;53.362;-1.518;2024-01-30T09:53:54;1.20;;;0.10;;
70477;SDS011;57956;53.362;-1.518;2024-01-30T09:56:19;1.10;;;0.10;;
70477;SDS011;57956;53.362;-1.518;2024-01-30T09:58:45;2.00;;;0.30;;
70477;SDS011;57956;53.362;-1.518;2024-01-30T10:01:13;1.23;;;0.10;;
70477;SDS011;57956;53.362;-1.518;2024-01-30T10:03:46;1.58;;;0.20;;
70477;SDS011;57956;53.362;-1.518;2024-01-30T10:06:11;1.42;;;0.20;;
70477;SDS011;57956;53.362;-1.518;2024-01-30T10:08:39;2.40;;;0.50;;
70477;SDS011;57956;53.362;-1.518;2024-01-30T10:11:05;0.95;;;0.10;;
70477;SDS011;57956;53.362;-1.518;2024-01-30T10:13:33;1.02;;;0.10;;
70477;SDS011;57956;53.362;-1.518;2024-01-30T10:16:01;1.45;;;0.20;;
70477;SDS011;57956;53.362;-1.518;2024-01-30T10:18:28;0.93;;;0.10;;
70477;SDS011;57956;53.362;-1.518;2024-01-30T10:20:53;0.80;;;0.10;;
70477;SDS011;57956;53.362;-1.518;2024-01-30T10:23:19;1.03;;;0.13;;
70477;SDS011;57956;53.362;-1.518;2024-01-30T10:25:45;1.35;;;0.20;;
70477;SDS011;57956;53.362;-1.518;2024-01-30T10:28:11;3.90;;;0.20;;
70477;SDS011;57956;53.362;-1.518;2024-01-30T10:30:36;1.00;;;0.10;;
70477;SDS011;57956;53.362;-1.518;2024-01-30T10:33:01;0.93;;;0.10;;
70477;SDS011;57956;53.362;-1.518;2024-01-30T10:35:27;0.80;;;0.10;;
70477;SDS011;57956;53.362;-1.518;2024-01-30T10:37:52;1.35;;;0.20;;
70477;SDS011;57956;53.362;-1.518;2024-01-30T10:40:18;0.83;;;0.10;;
70477;SDS011;57956;53.362;-1.518;2024-01-30T10:42:46;1.20;;;0.20;;
70477;SDS011;57956;53.362;-1.518;2024-01-30T10:45:12;1.60;;;0.40;;
70477;SDS011;57956;53.362;-1.518;2024-01-30T10:47:48;1.53;;;0.20;;
70477;SDS011;57956;53.362;-1.518;2024-01-30T10:50:14;2.22;;;0.25;;
70477;SDS011;57956;53.362;-1.518;2024-01-30T10:52:39;1.40;;;0.20;;
70477;SDS011;57956;53.362;-1.518;2024-01-30T10:55:07;1.75;;;0.30;;
70477;SDS011;57956;53.362;-1.518;2024-01-30T10:57:33;1.10;;;0.10;;
70477;SDS011;57956;53.362;-1.518;2024-01-30T10:59:59;1.30;;;0.20;;
70477;SDS011;57956;53.362;-1.518;2024-01-30T11:02:28;1.33;;;0.20;;
70477;SDS011;57956;53.362;-1.518;2024-01-30T11:04:57;1.73;;;0.20;;
70477;SDS011;57956;53.362;-1.518;2024-01-30T11:07:26;1.30;;;0.10;;
70477;SDS011;57956;53.362;-1.518;2024-01-30T11:12:26;1.77;;;0.33;;
70477;SDS011;57956;53.362;-1.518;2024-01-30T11:15:01;1.10;;;0.20;;
70477;SDS011;57956;53.362;-1.518;2024-01-30T11:17:28;1.48;;;0.25;;
70477;SDS011;57956;53.362;-1.518;2024-01-30T11:19:53;1.03;;;0.10;;
70477;SDS011;57956;53.362;-1.518;2024-01-30T11:22:20;1.67;;;0.20;;
70477;SDS011;57956;53.362;-1.518;2024-01-30T11:24:45;1.10;;;0.10;;
70477;SDS011;57956;53.362;-1.518;2024-01-30T11:27:11;1.23;;;0.35;;
70477;SDS011;57956;53.362;-1.518;2024-01-30T11:29:38;1.33;;;0.20;;
70477;SDS011;57956;53.362;-1.518;2024-01-30T11:32:05;1.30;;;0.30;;
70477;SDS011;57956;53.362;-1.518;2024-01-30T11:34:30;1.55;;;0.20;;
70477;SDS011;57956;53.362;-1.518;2024-01-30T11:37:03;1.00;;;0.10;;
70477;SDS011;57956;53.362;-1.518;2024-01-30T11:39:31;1.13;;;0.10;;
70477;SDS011;57956;53.362;-1.518;2024-01-30T11:41:57;0.95;;;0.10;;
70477;SDS011;57956;53.362;-1.518;2024-01-30T11:44:23;1.15;;;0.10;;
70477;SDS011;57956;53.362;-1.518;2024-01-30T11:46:49;1.23;;;0.20;;
70477;SDS011;57956;53.362;-1.518;2024-01-30T11:49:14;1.30;;;0.13;;
70477;SDS011;57956;53.362;-1.518;2024-01-30T11:51:42;0.90;;;0.10;;
70477;SDS011;57956;53.362;-1.518;2024-01-30T11:54:08;1.20;;;0.20;;
70477;SDS011;57956;53.362;-1.518;2024-01-30T11:56:33;0.98;;;0.10;;
70477;SDS011;57956;53.362;-1.518;2024-01-30T11:58:58;1.27;;;0.10;;
70477;SDS011;57956;53.362;-1.518;2024-01-30T12:01:31;1.17;;;0.20;;
70477;SDS011;57956;53.362;-1.518;2024-01-30T12:03:58;1.37;;;0.10;;
70477;SDS011;57956;53.362;-1.518;2024-01-30T12:06:24;1.15;;;0.10;;
70477;SDS011;57956;53.362;-1.518;2024-01-30T12:08:59;0.80;;;0.10;;
70477;SDS011;57956;53.362;-1.518;2024-01-30T12:11:25;1.20;;;0.10;;
70477;SDS011;57956;53.362;-1.518;2024-01-30T12:13:51;0.90;;;0.10;;
70477;SDS011;57956;53.362;-1.518;2024-01-30T12:16:16;1.25;;;0.20;;
70477;SDS011;57956;53.362;-1.518;2024-01-30T12:18:42;0.83;;;0.10;;
70477;SDS011;57956;53.362;-1.518;2024-01-30T12:21:07;1.53;;;0.10;;
70477;SDS011;57956;53.362;-1.518;2024-01-30T12:23:34;1.27;;;0.10;;
70477;SDS011;57956;53.362;-1.518;2024-01-30T12:26:00;0.90;;;0.10;;
70477;SDS011;57956;53.362;-1.518;2024-01-30T12:28:28;1.08;;;0.10;;
70477;SDS011;57956;53.362;-1.518;2024-01-30T12:30:56;1.23;;;0.20;;
70477;SDS011;57956;53.362;-1.518;2024-01-30T12:33:26;1.00;;;0.10;;
70477;SDS011;57956;53.362;-1.518;2024-01-30T12:35:51;1.30;;;0.10;;
70477;SDS011;57956;53.362;-1.518;2024-01-30T12:38:16;1.60;;;0.30;;
70477;SDS011;57956;53.362;-1.518;2024-01-30T12:40:42;1.10;;;0.10;;
70477;SDS011;57956;53.362;-1.518;2024-01-30T12:43:07;1.63;;;0.20;;
70477;SDS011;57956;53.362;-1.518;2024-01-30T12:45:33;1.20;;;0.20;;
70477;SDS011;57956;53.362;-1.518;2024-01-30T12:47:58;1.00;;;0.20;;
70477;SDS011;57956;53.362;-1.518;2024-01-30T12:50:24;1.08;;;0.10;;
70477;SDS011;57956;53.362;-1.518;2024-01-30T12:52:49;1.40;;;0.20;;
70477;SDS011;57956;53.362;-1.518;2024-01-30T12:55:14;1.53;;;0.13;;
70477;SDS011;57956;53.362;-1.518;2024-01-30T12:57:39;1.53;;;0.20;;
70477;SDS011;57956;53.362;-1.518;2024-01-30T13:00:13;1.27;;;0.13;;
70477;SDS011;57956;53.362;-1.518;2024-01-30T13:02:39;0.90;;;0.13;;
70477;SDS011;57956;53.362;-1.518;2024-01-30T13:05:04;1.10;;;0.20;;
70477;SDS011;57956;53.362;-1.518;2024-01-30T13:07:29;1.40;;;0.20;;
70477;SDS011;57956;53.362;-1.518;2024-01-30T13:09:55;1.40;;;0.20;;
70477;SDS011;57956;53.362;-1.518;2024-01-30T13:12:20;1.30;;;0.20;;
70477;SDS011;57956;53.362;-1.518;2024-01-30T13:14:45;1.57;;;0.20;;
70477;SDS011;57956;53.362;-1.518;2024-01-30T13:17:10;1.53;;;0.30;;
70477;SDS011;57956;53.362;-1.518;2024-01-30T13:19:36;1.47;;;0.20;;
70477;SDS011;57956;53.362;-1.518;2024-01-30T13:22:01;1.80;;;0.20;;
70477;SDS011;57956;53.362;-1.518;2024-01-30T13:24:26;1.40;;;0.20;;
70477;SDS011;57956;53.362;-1.518;2024-01-30T13:26:52;1.30;;;0.10;;
70477;SDS011;57956;53.362;-1.518;2024-01-30T13:29:18;1.10;;;0.10;;
70477;SDS011;57956;53.362;-1.518;2024-01-30T13:31:43;1.65;;;0.40;;
70477;SDS011;57956;53.362;-1.518;2024-01-30T13:34:11;1.67;;;0.40;;
70477;SDS011;57956;53.362;-1.518;2024-01-30T13:36:36;1.38;;;0.20;;
70477;SDS011;57956;53.362;-1.518;2024-01-30T13:39:01;1.03;;;0.10;;
70477;SDS011;57956;53.362;-1.518;2024-01-30T13:41:27;1.08;;;0.15;;
70477;SDS011;57956;53.362;-1.518;2024-01-30T13:43:53;1.00;;;0.20;;
70477;SDS011;57956;53.362;-1.518;2024-01-30T13:46:18;0.97;;;0.10;;
70477;SDS011;57956;53.362;-1.518;2024-01-30T13:48:44;1.33;;;0.20;;
70477;SDS011;57956;53.362;-1.518;2024-01-30T13:51:09;1.20;;;0.17;;
70477;SDS011;57956;53.362;-1.518;2024-01-30T13:53:35;1.43;;;0.20;;
70477;SDS011;57956;53.362;-1.518;2024-01-30T13:56:01;0.90;;;0.10;;
70477;SDS011;57956;53.362;-1.518;2024-01-30T13:58:26;1.73;;;0.20;;
70477;SDS011;57956;53.362;-1.518;2024-01-30T14:00:52;1.23;;;0.20;;
70477;SDS011;57956;53.362;-1.518;2024-01-30T14:03:17;1.60;;;0.30;;
70477;SDS011;57956;53.362;-1.518;2024-01-30T14:05:45;1.25;;;0.22;;
70477;SDS011;57956;53.362;-1.518;2024-01-30T14:08:11;1.60;;;0.20;;
70477;SDS011;57956;53.362;-1.518;2024-01-30T14:10:36;1.13;;;0.10;;
70477;SDS011;57956;53.362;-1.518;2024-01-30T14:13:01;1.40;;;0.20;;
70477;SDS011;57956;53.362;-1.518;2024-01-30T14:15:26;1.43;;;0.30;;
70477;SDS011;57956;53.362;-1.518;2024-01-30T14:17:52;2.10;;;0.20;;
70477;SDS011;57956;53.362;-1.518;2024-01-30T14:20:17;1.40;;;0.20;;
70477;SDS011;57956;53.362;-1.518;2024-01-30T14:22:42;1.00;;;0.10;;
70477;SDS011;57956;53.362;-1.518;2024-01-30T14:25:08;4.00;;;0.20;;
70477;SDS011;57956;53.362;-1.518;2024-01-30T14:27:34;2.88;;;0.20;;
70477;SDS011;57956;53.362;-1.518;2024-01-30T14:29:59;3.80;;;0.17;;
70477;SDS011;57956;53.362;-1.518;2024-01-30T14:32:28;1.30;;;0.10;;
70477;SDS011;57956;53.362;-1.518;2024-01-30T14:34:53;5.10;;;0.20;;
70477;SDS011;57956;53.362;-1.518;2024-01-30T14:37:19;1.67;;;0.20;;
70477;SDS011;57956;53.362;-1.518;2024-01-30T14:39:44;2.93;;;0.20;;
70477;SDS011;57956;53.362;-1.518;2024-01-30T14:42:09;1.93;;;0.40;;
70477;SDS011;57956;53.362;-1.518;2024-01-30T14:44:35;1.33;;;0.20;;
70477;SDS011;57956;53.362;-1.518;2024-01-30T14:47:01;3.35;;;0.70;;
70477;SDS011;57956;53.362;-1.518;2024-01-30T14:49:27;3.30;;;0.50;;
70477;SDS011;57956;53.362;-1.518;2024-01-30T14:51:53;2.17;;;0.40;;
70477;SDS011;57956;53.362;-1.518;2024-01-30T14:54:18;1.90;;;0.23;;
70477;SDS011;57956;53.362;-1.518;2024-01-30T14:56:43;2.40;;;0.50;;
70477;SDS011;57956;53.362;-1.518;2024-01-30T14:59:09;2.35;;;0.63;;
70477;SDS011;57956;53.362;-1.518;2024-01-30T15:01:34;1.50;;;0.20;;
70477;SDS011;57956;53.362;-1.518;2024-01-30T15:03:59;1.60;;;0.20;;
70477;SDS011;57956;53.362;-1.518;2024-01-30T15:06:24;2.53;;;0.23;;
70477;SDS011;57956;53.362;-1.518;2024-01-30T15:08:50;1.90;;;0.27;;
70477;SDS011;57956;53.362;-1.518;2024-01-30T15:11:15;2.63;;;0.20;;
70477;SDS011;57956;53.362;-1.518;2024-01-30T15:13:40;0.90;;;0.10;;
70477;SDS011;57956;53.362;-1.518;2024-01-30T15:16:06;2.03;;;0.60;;
70477;SDS011;57956;53.362;-1.518;2024-01-30T15:18:31;1.40;;;0.20;;
70477;SDS011;57956;53.362;-1.518;2024-01-30T15:20:56;1.33;;;0.20;;
70477;SDS011;57956;53.362;-1.518;2024-01-30T15:23:22;1.73;;;0.40;;
70477;SDS011;57956;53.362;-1.518;2024-01-30T15:25:47;1.90;;;0.30;;
70477;SDS011;57956;53.362;-1.518;2024-01-30T15:28:12;2.33;;;0.30;;
70477;SDS011;57956;53.362;-1.518;2024-01-30T15:30:39;3.10;;;0.40;;
70477;SDS011;57956;53.362;-1.518;2024-01-30T15:33:07;4.32;;;0.60;;
70477;SDS011;57956;53.362;-1.518;2024-01-30T15:35:32;2.77;;;0.40;;
70477;SDS011;57956;53.362;-1.518;2024-01-30T15:37:57;2.57;;;0.27;;
70477;SDS011;57956;53.362;-1.518;2024-01-30T15:40:22;4.90;;;0.40;;
70477;SDS011;57956;53.362;-1.518;2024-01-30T15:42:47;3.63;;;0.20;;
70477;SDS011;57956;53.362;-1.518;2024-01-30T15:45:13;1.23;;;0.30;;
70477;SDS011;57956;53.362;-1.518;2024-01-30T15:47:40;1.10;;;0.10;;
70477;SDS011;57956;53.362;-1.518;2024-01-30T15:50:06;0.90;;;0.10;;
70477;SDS011;57956;53.362;-1.518;2024-01-30T15:52:31;2.13;;;0.27;;
70477;SDS011;57956;53.362;-1.518;2024-01-30T15:54:56;3.30;;;0.87;;
70477;SDS011;57956;53.362;-1.518;2024-01-30T15:57:22;1.87;;;0.50;;
70477;SDS011;57956;53.362;-1.518;2024-01-30T15:59:47;2.13;;;0.30;;
70477;SDS011;57956;53.362;-1.518;2024-01-30T16:02:12;6.13;;;0.40;;
70477;SDS011;57956;53.362;-1.518;2024-01-30T16:04:39;4.32;;;0.40;;
70477;SDS011;57956;53.362;-1.518;2024-01-30T16:07:04;3.60;;;0.40;;
70477;SDS011;57956;53.362;-1.518;2024-01-30T16:09:29;3.07;;;0.43;;
70477;SDS011;57956;53.362;-1.518;2024-01-30T16:11:55;3.83;;;0.50;;
70477;SDS011;57956;53.362;-1.518;2024-01-30T16:14:20;2.97;;;0.30;;
70477;SDS011;57956;53.362;-1.518;2024-01-30T16:16:45;1.40;;;0.20;;
70477;SDS011;57956;53.362;-1.518;2024-01-30T16:19:10;2.17;;;0.50;;
70477;SDS011;57956;53.362;-1.518;2024-01-30T16:21:36;5.23;;;0.40;;
70477;SDS011;57956;53.362;-1.518;2024-01-30T16:24:01;3.00;;;0.30;;
70477;SDS011;57956;53.362;-1.518;2024-01-30T16:26:27;4.23;;;0.30;;
70477;SDS011;57956;53.362;-1.518;2024-01-30T16:28:53;2.40;;;0.30;;
70477;SDS011;57956;53.362;-1.518;2024-01-30T16:31:18;3.30;;;0.30;;
70477;SDS011;57956;53.362;-1.518;2024-01-30T16:33:48;2.25;;;0.28;;
70477;SDS011;57956;53.362;-1.518;2024-01-30T16:36:14;1.85;;;0.28;;
70477;SDS011;57956;53.362;-1.518;2024-01-30T16:38:39;2.07;;;0.20;;
70477;SDS011;57956;53.362;-1.518;2024-01-30T16:41:04;1.20;;;0.30;;
70477;SDS011;57956;53.362;-1.518;2024-01-30T16:43:29;2.13;;;0.30;;
70477;SDS011;57956;53.362;-1.518;2024-01-30T16:45:55;1.50;;;0.40;;
70477;SDS011;57956;53.362;-1.518;2024-01-30T16:48:20;2.43;;;0.30;;
70477;SDS011;57956;53.362;-1.518;2024-01-30T16:50:47;2.63;;;0.32;;
70477;SDS011;57956;53.362;-1.518;2024-01-30T16:53:13;3.90;;;0.52;;
70477;SDS011;57956;53.362;-1.518;2024-01-30T16:55:38;6.27;;;0.40;;
70477;SDS011;57956;53.362;-1.518;2024-01-30T16:58:04;1.97;;;0.30;;
70477;SDS011;57956;53.362;-1.518;2024-01-30T17:00:29;1.70;;;0.30;;
70477;SDS011;57956;53.362;-1.518;2024-01-30T17:02:54;3.23;;;0.40;;
70477;SDS011;57956;53.362;-1.518;2024-01-30T17:05:19;1.33;;;0.23;;
70477;SDS011;57956;53.362;-1.518;2024-01-30T17:07:45;1.67;;;0.30;;
70477;SDS011;57956;53.362;-1.518;2024-01-30T17:10:11;2.43;;;0.30;;
70477;SDS011;57956;53.362;-1.518;2024-01-30T17:12:38;2.72;;;0.47;;
70477;SDS011;57956;53.362;-1.518;2024-01-30T17:15:03;2.53;;;0.30;;
70477;SDS011;57956;53.362;-1.518;2024-01-30T17:17:29;1.45;;;0.20;;
70477;SDS011;57956;53.362;-1.518;2024-01-30T17:19:54;2.63;;;0.57;;
70477;SDS011;57956;53.362;-1.518;2024-01-30T17:22:19;1.90;;;0.40;;
70477;SDS011;57956;53.362;-1.518;2024-01-30T17:24:47;3.90;;;0.20;;
70477;SDS011;57956;53.362;-1.518;2024-01-30T17:27:13;2.38;;;0.60;;
70477;SDS011;57956;53.362;-1.518;2024-01-30T17:29:38;2.60;;;0.40;;
70477;SDS011;57956;53.362;-1.518;2024-01-30T17:32:04;1.92;;;0.35;;
70477;SDS011;57956;53.362;-1.518;2024-01-30T17:34:29;1.90;;;0.30;;
70477;SDS011;57956;53.362;-1.518;2024-01-30T17:36:55;2.00;;;0.30;;
70477;SDS011;57956;53.362;-1.518;2024-01-30T17:39:20;2.03;;;0.27;;
70477;SDS011;57956;53.362;-1.518;2024-01-30T17:41:45;3.47;;;0.33;;
70477;SDS011;57956;53.362;-1.518;2024-01-30T17:44:10;4.70;;;0.57;;
70477;SDS011;57956;53.362;-1.518;2024-01-30T17:46:39;2.13;;;0.43;;
70477;SDS011;57956;53.362;-1.518;2024-01-30T17:49:05;4.70;;;0.87;;
70477;SDS011;57956;53.362;-1.518;2024-01-30T17:51:31;5.40;;;0.60;;
70477;SDS011;57956;53.362;-1.518;2024-01-30T17:53:56;2.10;;;0.40;;
70477;SDS011;57956;53.362;-1.518;2024-01-30T17:56:21;4.90;;;1.00;;
70477;SDS011;57956;53.362;-1.518;2024-01-30T17:58:47;4.22;;;0.65;;
70477;SDS011;57956;53.362;-1.518;2024-01-30T18:01:12;3.97;;;0.80;;
70477;SDS011;57956;53.362;-1.518;2024-01-30T18:03:37;2.40;;;0.40;;
70477;SDS011;57956;53.362;-1.518;2024-01-30T18:06:04;3.92;;;1.08;;
70477;SDS011;57956;53.362;-1.518;2024-01-30T18:08:31;3.57;;;0.60;;
70477;SDS011;57956;53.362;-1.518;2024-01-30T18:10:57;4.88;;;1.02;;
70477;SDS011;57956;53.362;-1.518;2024-01-30T18:13:22;5.17;;;0.90;;
70477;SDS011;57956;53.362;-1.518;2024-01-30T18:15:48;2.60;;;0.60;;
70477;SDS011;57956;53.362;-1.518;2024-01-30T18:18:13;4.70;;;0.50;;
70477;SDS011;57956;53.362;-1.518;2024-01-30T18:20:39;4.40;;;0.50;;
70477;SDS011;57956;53.362;-1.518;2024-01-30T18:23:05;2.92;;;0.60;;
70477;SDS011;57956;53.362;-1.518;2024-01-30T18:25:30;3.97;;;0.43;;
70477;SDS011;57956;53.362;-1.518;2024-01-30T18:27:55;3.23;;;0.60;;
70477;SDS011;57956;53.362;-1.518;2024-01-30T18:30:20;7.53;;;0.60;;
70477;SDS011;57956;53.362;-1.518;2024-01-30T18:32:46;2.55;;;0.70;;
70477;SDS011;57956;53.362;-1.518;2024-01-30T18:35:11;5.20;;;0.40;;
70477;SDS011;57956;53.362;-1.518;2024-01-30T18:37:36;4.47;;;0.30;;
70477;SDS011;57956;53.362;-1.518;2024-01-30T18:40:02;2.03;;;0.40;;
70477;SDS011;57956;53.362;-1.518;2024-01-30T18:42:27;1.83;;;0.40;;
70477;SDS011;57956;53.362;-1.518;2024-01-30T18:44:53;5.83;;;0.97;;
70477;SDS011;57956;53.362;-1.518;2024-01-30T18:47:18;2.23;;;0.30;;
70477;SDS011;57956;53.362;-1.518;2024-01-30T18:49:43;2.90;;;0.60;;
70477;SDS011;57956;53.362;-1.518;2024-01-30T18:52:09;2.53;;;0.50;;
70477;SDS011;57956;53.362;-1.518;2024-01-30T18:54:34;4.87;;;0.77;;
70477;SDS011;57956;53.362;-1.518;2024-01-30T18:56:59;3.13;;;0.70;;
70477;SDS011;57956;53.362;-1.518;2024-01-30T18:59:24;3.77;;;0.60;;
70477;SDS011;57956;53.362;-1.518;2024-01-30T19:01:50;4.55;;;0.82;;
70477;SDS011;57956;53.362;-1.518;2024-01-30T19:04:16;6.23;;;0.90;;
70477;SDS011;57956;53.362;-1.518;2024-01-30T19:06:41;3.20;;;0.70;;
70477;SDS011;57956;53.362;-1.518;2024-01-30T19:09:06;2.63;;;0.30;;
70477;SDS011;57956;53.362;-1.518;2024-01-30T19:11:33;4.60;;;1.00;;
70477;SDS011;57956;53.362;-1.518;2024-01-30T19:13:58;5.50;;;0.88;;
70477;SDS011;57956;53.362;-1.518;2024-01-30T19:16:23;3.73;;;1.00;;
70477;SDS011;57956;53.362;-1.518;2024-01-30T19:18:49;8.10;;;0.77;;
70477;SDS011;57956;53.362;-1.518;2024-01-30T19:21:15;2.88;;;0.52;;
70477;SDS011;57956;53.362;-1.518;2024-01-30T19:23:40;5.07;;;1.57;;
70477;SDS011;57956;53.362;-1.518;2024-01-30T19:26:06;3.53;;;0.60;;
70477;SDS011;57956;53.362;-1.518;2024-01-30T19:28:32;5.55;;;0.75;;
70477;SDS011;57956;53.362;-1.518;2024-01-30T19:30:57;7.90;;;1.00;;
70477;SDS011;57956;53.362;-1.518;2024-01-30T19:33:22;3.50;;;0.77;;
70477;SDS011;57956;53.362;-1.518;2024-01-30T19:35:47;4.67;;;1.10;;
70477;SDS011;57956;53.362;-1.518;2024-01-30T19:38:12;3.50;;;1.13;;
70477;SDS011;57956;53.362;-1.518;2024-01-30T19:40:39;5.18;;;1.17;;
70477;SDS011;57956;53.362;-1.518;2024-01-30T19:43:04;5.30;;;1.17;;
70477;SDS011;57956;53.362;-1.518;2024-01-30T19:45:29;3.40;;;1.10;;
70477;SDS011;57956;53.362;-1.518;2024-01-30T19:47:55;6.28;;;1.30;;
70477;SDS011;57956;53.362;-1.518;2024-01-30T19:50:20;4.40;;;0.90;;